Aviation Digital Data Service (ADDS)

Output produced by TAFs form (0747 UTC 25 March 2017)
found at http://www.aviationweather.gov/adds/tafs/
 
METAR text: ZBTJ 250730Z 24003MPS 200V270 3500 HZ BKN030 10/03 Q1020 NOSIG
Conditions at: ZBTJ (TIANJIN/ZHANGGUI, CN) observed 0730 UTC 25 March 2017
Temperature: 10.0°C (50°F)
Dewpoint: 3.0°C (37°F) [RH = 62%]
Pressure (altimeter): 30.12 inches Hg (1020.0 mb)
Winds: from the WSW (240 degrees) at 7 MPH (6 knots; 3.1 m/s)
Visibility: 2.17 miles (3.49 km)
Ceiling: 3000 feet AGL
Clouds: broken clouds at 3000 feet AGL
Weather: HZ  (haze)

Forecast for: ZBTJ (TIANJIN/ZHANGGUI, CN)
Text: TAF ZBTJ 250300Z 2506/2606 36004MPS 3000 HZ NSC TX12/2507Z TN03/2522Z
Forecast period: 0600 UTC 25 March 2017 to 0600 UTC 26 March 2017
Forecast type: FROM: standard forecast or significant change
Winds: from the N (360 degrees) at 9 MPH (8 knots; 4.2 m/s)
Visibility: 1.86 miles (2.99 km)
Clouds: not forecast
Weather: HZ  (haze)